Cut Bank, MT

8:15 PM MST on December 22, 2014 (GMT -0700)
CG Ag Consulting | Change Station
CLOSE
Current Station
Personal Weather Station
Location: Cut Bank, MT
Elevation: 3789 ft
Nearby Weather Stations

Elev 3789 ft 48.70 °N, 112.32 °W | Updated 3 seconds ago

Scattered Clouds
Scattered Clouds
23.9 °F
Feels Like 19 °F
N
3.5
Wind Variable Wind from WSW
Gusts 6.0 mph

Today
High -- | Low -- °F
--% Chance of Precip.
Yesterday
High -- | Low -- °F
Precip. -- in
8:19 AM 4:36 PM
New Moon, 2% visible
Pressure 30.21 in
Visibility 10.0 miles
Clouds Scattered Clouds 6500 ft
Windchill 19 °F
Dew Point 21 °F
Humidity 84%
Rainfall 0.00 in
Snow Depth Not available.
UV 0 out of 12
Pollen .10 out of 12
Air Quality Not available.
Flu Activity Not available.
METAR KCTB 230256Z AUTO 36007KT 10SM SCT065 M03/M06 A3010 RMK AO2 SLP228 T10281061 53022

More Conditions Fewer Conditions

Pressure 30.21 in
Visibility 10.0 miles
Clouds Scattered Clouds 6500 ft
Windchill 19 °F
Dew Point 21 °F
Humidity 84%
Rainfall 0.00 in
Snow Depth Not available.
UV 0 out of 12
Pollen .10 out of 12
Air Quality Not available.
Flu Activity Not available.
METAR KCTB 230256Z AUTO 36007KT 10SM SCT065 M03/M06 A3010 RMK AO2 SLP228 T10281061 53022

More Conditions Fewer Conditions

10-Day Weather Forecast

Almanac

Astronomy

Dec. 22, 2014 Rise Set
Actual Time
Civil Twilight
Nautical Twilight
Astronomical Twilight
Moon
Length of Visible Light
Length of Day
Tomorrow will be .
, % of the Moon is Illuminated

Today's Extremes

State Highs State Lows

Community

WunderPhotos

Upload Photos

1,779,763 photos uploaded!

WunderBlogs® & News

Nearby

Air Quality

  Air Quality AQ Index Pollutant
Not available.

Snow Depth

Station Depth Elevation

Earthquake Activity

City Distance Mag. Time & Date
Minimum magnitude displayed is 2.5.

Coastal Water Temperatures

Place Temperature

Nearby Weather Stations